Time;durP1;ratioP1;P1;durP2;ratioP2;P2;SDS_P1;SDS_P2;PMS_P1;PMS_P2;Temp;Humidity;BMP_temperature;BMP_pressure;BME280_temperature;BME280_humidity;BME280_pressure;Samples;Min_cycle;Max_cycle;Signal;HPM_P1;HPM_P2
2023/01/19 00:00:51;;;;;;;7.10;4.45;;;;;;;-0.22;97.00;100029.38;5025418;28;20047;-49
2023/01/19 00:03:18;;;;;;;7.63;4.63;;;;;;;-0.22;97.12;100029.38;4997482;28;20049;-43
2023/01/19 00:05:45;;;;;;;10.60;4.53;;;;;;;-0.21;96.86;100027.44;5028333;28;20056;-44
2023/01/19 00:08:15;;;;;;;13.75;5.40;;;;;;;-0.20;97.01;100019.00;5029406;28;20041;-44
2023/01/19 00:10:47;;;;;;;7.93;5.28;;;;;;;-0.21;97.00;100027.44;5022126;28;20041;-44
2023/01/19 00:13:14;;;;;;;8.80;4.07;;;;;;;-0.20;97.05;100023.63;5027424;28;20057;-49
2023/01/19 00:15:41;;;;;;;16.08;5.63;;;;;;;-0.18;97.23;100021.41;5027437;28;20509;-44
2023/01/19 00:18:08;;;;;;;14.10;7.07;;;;;;;-0.19;97.06;100008.94;5010298;28;20056;-43
2023/01/19 00:20:40;;;;;;;8.25;4.93;;;;;;;-0.19;97.11;100012.47;5010455;28;20123;-47
2023/01/19 00:23:07;;;;;;;10.18;6.25;;;;;;;-0.19;97.48;100007.03;5028101;28;20068;-45
2023/01/19 00:25:41;;;;;;;14.38;7.43;;;;;;;-0.19;97.41;100006.22;5026553;28;20557;-44
2023/01/19 00:28:11;;;;;;;14.80;7.45;;;;;;;-0.19;97.13;100004.31;5028506;28;20084;-43
2023/01/19 00:30:38;;;;;;;19.10;8.27;;;;;;;-0.18;97.35;100005.91;5031475;28;20034;-42
2023/01/19 00:33:05;;;;;;;9.07;6.57;;;;;;;-0.18;97.22;100003.19;5031417;28;20171;-48
2023/01/19 00:35:33;;;;;;;15.63;6.88;;;;;;;-0.17;97.33;100017.59;5031635;28;20403;-44
2023/01/19 00:38:01;;;;;;;8.07;5.75;;;;;;;-0.16;97.38;100005.63;5039672;28;20060;-47
2023/01/19 00:40:28;;;;;;;9.40;6.18;;;;;;;-0.16;97.34;100008.34;5031685;28;20396;-43
2023/01/19 00:42:55;;;;;;;11.38;6.00;;;;;;;-0.15;97.46;100001.78;5031326;28;20060;-43
2023/01/19 00:45:23;;;;;;;9.20;6.32;;;;;;;-0.17;97.36;100001.28;5031266;28;20406;-44
2023/01/19 00:47:55;;;;;;;11.52;5.13;;;;;;;-0.17;97.38;100004.81;5030890;28;20136;-42
2023/01/19 00:50:23;;;;;;;10.38;4.82;;;;;;;-0.18;97.46;100002.38;5019159;28;20049;-44
2023/01/19 00:52:52;;;;;;;9.57;6.07;;;;;;;-0.17;97.45;100004.81;5030859;28;20060;-42
2023/01/19 00:55:19;;;;;;;7.35;4.40;;;;;;;-0.18;97.62;100005.09;5030683;28;20045;-44
2023/01/19 00:57:46;;;;;;;12.38;5.57;;;;;;;-0.20;97.39;100004.59;5031197;28;20147;-44
2023/01/19 01:00:20;;;;;;;9.90;5.22;;;;;;;-0.21;97.52;100000.22;5030590;28;20049;-44
2023/01/19 01:02:49;;;;;;;8.82;4.22;;;;;;;-0.22;97.63;99998.63;5030581;28;20057;-43
2023/01/19 01:05:16;;;;;;;10.43;4.78;;;;;;;-0.22;97.42;100004.06;5031175;28;20435;-46
2023/01/19 01:07:44;;;;;;;9.38;4.32;;;;;;;-0.23;97.58;99997.00;5035093;28;20045;-44
2023/01/19 01:10:14;;;;;;;12.00;3.70;;;;;;;-0.25;97.61;100005.47;5030600;28;20045;-45
2023/01/19 01:12:41;;;;;;;10.27;4.95;;;;;;;-0.26;97.57;99992.13;5030995;28;20041;-52
2023/01/19 01:15:26;;;;;;;9.55;4.05;;;;;;;-0.25;97.92;99988.34;5030653;28;20091;-43
2023/01/19 01:17:53;;;;;;;13.35;4.40;;;;;;;-0.25;97.56;99982.91;5030958;28;20145;-43
2023/01/19 01:20:24;;;;;;;14.70;4.82;;;;;;;-0.27;97.85;99985.91;5030586;28;20491;-44
2023/01/19 01:22:52;;;;;;;6.32;4.05;;;;;;;-0.26;98.01;99986.69;5030675;28;20067;-43
2023/01/19 01:25:22;;;;;;;8.88;4.03;;;;;;;-0.23;97.73;99977.97;5029827;28;20144;-43
2023/01/19 01:27:49;;;;;;;11.20;4.38;;;;;;;-0.24;97.88;99974.44;5030756;28;20038;-43
2023/01/19 01:30:17;;;;;;;15.30;4.95;;;;;;;-0.24;98.07;99976.38;5033584;28;20064;-43
2023/01/19 01:32:44;;;;;;;6.80;3.83;;;;;;;-0.22;97.79;99971.44;5023162;28;20838;-45
2023/01/19 01:35:11;;;;;;;6.30;3.65;;;;;;;-0.21;98.07;99978.47;5030602;28;20058;-42
2023/01/19 01:37:38;;;;;;;11.05;3.50;;;;;;;-0.20;98.06;99969.22;5034376;28;20121;-43
2023/01/19 01:40:06;;;;;;;8.57;4.10;;;;;;;-0.20;98.07;99974.66;5029318;28;20038;-50
2023/01/19 01:42:33;;;;;;;9.77;4.07;;;;;;;-0.19;97.86;99965.41;5012723;28;20053;-43
2023/01/19 01:45:04;;;;;;;9.05;3.42;;;;;;;-0.19;98.08;99965.41;5029961;28;20064;-50
2023/01/19 01:47:35;;;;;;;7.20;3.53;;;;;;;-0.18;98.01;99972.44;5030815;28;20053;-47
2023/01/19 01:50:24;;;;;;;6.80;3.10;;;;;;;-0.19;98.05;99970.84;5030007;28;20041;-46
2023/01/19 01:52:54;;;;;;;10.75;4.05;;;;;;;-0.17;98.06;99963.19;5030101;28;20061;-43
2023/01/19 01:55:36;;;;;;;;;;;;;;;-0.19;97.97;99968.94;5030667;28;20072;-47
2023/01/19 01:58:04;;;;;;;8.80;3.35;;;;;;;-0.22;98.15;99966.81;5030200;28;19925;-45
2023/01/19 02:02:49;;;;;;;7.28;3.67;;;;;;;-0.22;97.83;99952.41;5029556;28;20046;-43
2023/01/19 02:03:20;;;;;;;11.95;4.00;;;;;;;-0.22;97.99;99955.13;5004621;28;20050;-43
2023/01/19 02:05:48;;;;;;;6.57;3.10;;;;;;;-0.21;98.10;99957.53;5010795;28;20050;-42
2023/01/19 02:13:53;;;;;;;8.07;2.88;;;;;;;-0.18;98.17;99950.69;5009890;28;20045;-45
2023/01/19 02:16:19;;;;;;;8.13;3.25;;;;;;;-0.17;97.95;99936.00;5009954;28;20530;-43
2023/01/19 02:18:46;;;;;;;5.47;2.88;;;;;;;-0.16;98.10;99949.28;5010112;28;20478;-43
2023/01/19 02:21:22;;;;;;;7.93;3.40;;;;;;;-0.15;98.24;99939.22;5010187;28;20065;-44
2023/01/19 02:23:54;;;;;;;9.85;3.42;;;;;;;-0.13;98.05;99926.94;5009648;28;20121;-43
2023/01/19 02:26:33;;;;;;;8.65;2.67;;;;;;;-0.11;98.13;99923.94;5009451;28;20137;-42
2023/01/19 02:29:03;;;;;;;6.25;2.72;;;;;;;-0.10;98.19;99923.63;5009616;28;20071;-45
2023/01/19 02:31:32;;;;;;;5.82;3.00;;;;;;;-0.08;98.03;99926.09;5009696;28;20443;-44
2023/01/19 02:34:00;;;;;;;6.32;2.88;;;;;;;-0.07;97.99;99924.97;4992294;28;20045;-43
2023/01/19 02:36:41;;;;;;;9.00;4.82;;;;;;;-0.05;98.11;99939.06;4991586;28;20042;-43
2023/01/19 02:39:10;;;;;;;5.05;2.30;;;;;;;-0.04;98.04;99924.38;5010488;28;20049;-44
2023/01/19 02:41:51;;;;;;;6.70;2.75;;;;;;;-0.03;98.02;99932.22;5009558;28;20046;-47
2023/01/19 02:44:19;;;;;;;9.82;2.53;;;;;;;-0.02;98.02;99933.03;5009458;28;20141;-47
2023/01/19 02:46:46;;;;;;;6.97;2.78;;;;;;;-0.02;98.01;99938.47;5009200;28;20488;-43
2023/01/19 02:49:13;;;;;;;4.43;1.88;;;;;;;-0.02;98.10;99933.03;5009426;28;20053;-43
2023/01/19 02:51:42;;;;;;;4.22;2.70;;;;;;;-0.03;98.19;99942.31;5008996;28;20056;-45
2023/01/19 02:54:30;;;;;;;3.58;2.90;;;;;;;-0.03;98.15;99931.44;5009387;28;20050;-42
2023/01/19 02:57:23;;;;;;;5.53;3.08;;;;;;;-0.02;98.38;99938.47;5002623;28;20054;-44
2023/01/19 02:59:55;;;;;;;5.18;2.25;;;;;;;-0.05;98.06;99929.00;4990445;28;20060;-46
2023/01/19 03:02:33;;;;;;;3.70;2.58;;;;;;;-0.03;98.08;99936.88;5809660;23;20044;-47
2023/01/19 03:05:22;;;;;;;10.13;2.92;;;;;;;-0.04;98.08;99927.09;6059556;23;20036;-48
2023/01/19 03:08:14;;;;;;;5.63;2.00;;;;;;;-0.04;98.12;99927.09;6040410;23;20068;-46
2023/01/19 03:10:50;;;;;;;7.00;2.60;;;;;;;-0.04;97.92;99929.81;6040923;23;20033;-43
2023/01/19 03:13:38;;;;;;;6.53;2.60;;;;;;;-0.05;98.22;99923.56;6058338;23;20543;-45
2023/01/19 03:16:21;;;;;;;12.15;2.22;;;;;;;-0.04;97.89;99929.81;6057708;23;20067;-45
2023/01/19 03:19:11;;;;;;;10.07;2.50;;;;;;;-0.06;98.10;99935.56;6058059;23;20385;-43
2023/01/19 03:21:42;;;;;;;5.10;1.85;;;;;;;-0.06;98.04;99921.16;6039836;23;20501;-43
2023/01/19 03:24:11;;;;;;;12.13;2.25;;;;;;;-0.06;97.97;99927.41;6058114;23;20147;-42
2023/01/19 03:26:42;;;;;;;8.57;2.28;;;;;;;-0.05;97.73;99925.47;6058059;23;20032;-49
2023/01/19 03:29:12;;;;;;;6.80;2.10;;;;;;;-0.07;98.03;99920.34;6033587;23;20037;-43
2023/01/19 03:31:43;;;;;;;3.97;2.33;;;;;;;-0.06;98.07;99923.88;6036523;23;20554;-44
2023/01/19 03:34:13;;;;;;;4.15;2.30;;;;;;;-0.07;97.95;99920.34;6057564;23;20090;-45
2023/01/19 03:36:50;;;;;;;5.32;2.78;;;;;;;-0.07;98.07;99920.34;6058765;23;20043;-43
2023/01/19 03:39:21;;;;;;;4.18;1.98;;;;;;;-0.06;98.14;99916.53;6072696;23;20056;-48
2023/01/19 03:41:52;;;;;;;7.85;2.08;;;;;;;-0.04;97.97;99913.50;6032784;23;20029;-44
2023/01/19 03:44:22;;;;;;;5.53;1.83;;;;;;;-0.04;98.14;99914.31;6058622;23;20032;-44
2023/01/19 03:46:49;;;;;;;8.65;1.80;;;;;;;-0.02;98.25;99914.00;6058115;23;20029;-44
2023/01/19 03:49:16;;;;;;;3.25;1.60;;;;;;;-0.01;97.93;99921.06;6057590;23;20060;-47
2023/01/19 03:51:43;;;;;;;8.43;2.47;;;;;;;-0.01;98.32;99908.28;6057761;23;20028;-43
2023/01/19 03:54:10;;;;;;;7.18;2.22;;;;;;;0.02;98.04;99914.22;6057731;23;20104;-47
2023/01/19 03:56:37;;;;;;;13.77;2.53;;;;;;;0.03;98.11;99918.56;6032911;23;20025;-42
2023/01/19 03:59:07;;;;;;;4.15;2.03;;;;;;;0.03;98.05;99918.56;6057187;23;20029;-48
2023/01/19 04:01:33;;;;;;;4.15;1.73;;;;;;;0.03;98.15;99913.91;6057488;23;20043;-43
2023/01/19 04:04:00;;;;;;;12.35;2.65;;;;;;;0.03;97.94;99908.47;6057099;23;20032;-45
2023/01/19 04:06:27;;;;;;;4.93;1.70;;;;;;;0.02;98.09;99912.31;6057523;23;20033;-43
2023/01/19 04:08:53;;;;;;;3.88;2.30;;;;;;;0.03;97.97;99913.13;6064972;23;20489;-46
2023/01/19 04:11:20;;;;;;;6.43;2.58;;;;;;;0.02;97.91;99906.88;6052204;23;20486;-46
2023/01/19 04:13:47;;;;;;;7.47;2.50;;;;;;;0.01;98.10;99905.25;6057306;23;20041;-44
2023/01/19 04:16:18;;;;;;;3.80;1.70;;;;;;;0.02;97.98;99889.75;6058152;23;20532;-44
2023/01/19 04:18:47;;;;;;;4.45;2.13;;;;;;;0.00;97.82;99895.50;6056920;23;20174;-46
2023/01/19 04:21:14;;;;;;;7.00;1.90;;;;;;;0.00;97.89;99903.66;6057776;23;20056;-43
2023/01/19 04:23:43;;;;;;;6.53;1.77;;;;;;;-0.01;98.22;99900.13;6057520;23;20056;-44
2023/01/19 04:26:09;;;;;;;5.80;1.95;;;;;;;-0.03;97.77;99898.78;6057494;23;20029;-43
2023/01/19 04:28:36;;;;;;;5.00;2.08;;;;;;;-0.04;97.97;99913.50;6058062;23;20056;-43
2023/01/19 04:31:05;;;;;;;10.05;2.97;;;;;;;-0.07;97.85;99909.44;6056908;23;20037;-45
2023/01/19 04:33:33;;;;;;;7.45;2.55;;;;;;;-0.09;97.90;99902.69;6057717;23;20032;-46
2023/01/19 04:36:00;;;;;;;3.53;1.98;;;;;;;-0.12;97.93;99901.38;6057770;23;20036;-43
2023/01/19 04:38:27;;;;;;;4.55;2.38;;;;;;;-0.14;97.90;99900.06;6061825;23;20060;-44
2023/01/19 04:40:54;;;;;;;7.38;2.33;;;;;;;-0.17;97.97;99914.22;6056897;23;20036;-43
2023/01/19 04:43:22;;;;;;;10.05;3.17;;;;;;;-0.19;97.77;99908.28;6057688;23;20040;-43
2023/01/19 04:45:49;;;;;;;5.35;1.85;;;;;;;-0.21;97.83;99896.88;6057312;23;20039;-43
2023/01/19 04:48:17;;;;;;;6.85;1.77;;;;;;;-0.22;97.91;99901.53;6057372;23;20402;-44
2023/01/19 04:50:44;;;;;;;5.90;1.70;;;;;;;-0.24;97.92;99892.06;6033032;23;20680;-46
2023/01/19 04:53:12;;;;;;;7.65;2.72;;;;;;;-0.25;97.64;99895.84;6056820;23;20033;-43
2023/01/19 04:55:39;;;;;;;5.75;2.10;;;;;;;-0.27;97.70;99898.06;6033541;23;20028;-43
2023/01/19 04:58:06;;;;;;;6.47;1.92;;;;;;;-0.29;97.44;99900.28;6057714;23;20044;-52
2023/01/19 05:00:32;;;;;;;4.40;1.50;;;;;;;-0.31;97.69;99897.84;6057214;23;20508;-43
2023/01/19 05:03:00;;;;;;;3.92;1.63;;;;;;;-0.32;97.65;99906.31;6057345;23;20036;-45
2023/01/19 05:05:27;;;;;;;5.55;2.08;;;;;;;-0.35;97.50;99896.00;6057188;23;20040;-42
2023/01/19 05:07:54;;;;;;;1.95;1.40;;;;;;;-0.36;97.54;99900.63;6064321;23;20375;-43
2023/01/19 05:10:21;;;;;;;4.35;2.13;;;;;;;-0.39;97.50;99887.63;6057639;23;20036;-48
2023/01/19 05:12:48;;;;;;;2.60;2.10;;;;;;;-0.38;97.53;99891.16;6057815;23;20032;-43
2023/01/19 05:15:15;;;;;;;4.07;1.73;;;;;;;-0.39;97.47;99884.09;6057955;23;20032;-44
2023/01/19 05:17:41;;;;;;;2.63;2.03;;;;;;;-0.40;97.46;99888.75;6058454;23;20036;-41
2023/01/19 05:20:10;;;;;;;3.20;1.60;;;;;;;-0.42;97.39;99890.94;6058485;23;20721;-44
2023/01/19 05:22:40;;;;;;;3.35;1.77;;;;;;;-0.45;97.09;99885.28;6058628;23;20025;-43
2023/01/19 05:25:07;;;;;;;4.07;2.15;;;;;;;-0.46;97.38;99883.66;6058487;23;20036;-43
2023/01/19 05:27:35;;;;;;;4.18;1.70;;;;;;;-0.48;97.46;99891.31;6057683;23;20032;-43
2023/01/19 05:30:03;;;;;;;4.10;2.45;;;;;;;-0.50;97.48;99877.22;6063388;23;20029;-43
2023/01/19 05:32:30;;;;;;;2.65;1.52;;;;;;;-0.52;97.34;99890.25;6058785;23;20060;-43
2023/01/19 05:34:57;;;;;;;6.93;2.00;;;;;;;-0.53;97.26;99894.09;6058561;23;20039;-47
2023/01/19 05:37:23;;;;;;;6.32;1.98;;;;;;;-0.53;97.41;99889.44;6068445;23;20036;-44
2023/01/19 05:39:50;;;;;;;6.03;1.98;;;;;;;-0.54;97.46;99887.03;6066894;23;20785;-43
2023/01/19 05:42:17;;;;;;;3.17;1.95;;;;;;;-0.55;97.51;99885.41;6059109;23;20101;-47
2023/01/19 05:44:43;;;;;;;4.78;1.88;;;;;;;-0.56;97.31;99894.69;6058207;23;20029;-50
2023/01/19 05:47:10;;;;;;;4.53;1.45;;;;;;;-0.59;97.35;99901.50;6059026;23;20490;-44
2023/01/19 05:49:37;;;;;;;3.92;1.25;;;;;;;-0.60;97.25;99899.88;6057908;23;20035;-43
2023/01/19 05:52:05;;;;;;;6.95;1.55;;;;;;;-0.62;97.27;99899.38;6058530;23;20059;-44
2023/01/19 05:54:31;;;;;;;3.40;2.00;;;;;;;-0.62;97.57;99902.91;6057730;23;20079;-50
2023/01/19 05:56:58;;;;;;;4.32;1.90;;;;;;;-0.63;97.18;99901.28;6057283;23;20029;-43
2023/01/19 05:59:25;;;;;;;6.50;2.40;;;;;;;-0.63;97.29;99904.00;6058546;23;20033;-43
2023/01/19 06:01:52;;;;;;;11.35;2.65;;;;;;;-0.64;97.20;99910.53;6058677;23;20036;-47
2023/01/19 06:04:20;;;;;;;4.50;1.98;;;;;;;-0.64;97.09;99915.16;6061818;23;20021;-44
2023/01/19 06:06:47;;;;;;;5.38;1.85;;;;;;;-0.63;97.20;99916.78;6059517;23;20071;-46
2023/01/19 06:09:16;;;;;;;4.40;1.50;;;;;;;-0.63;97.30;99912.16;6064571;23;20060;-44
2023/01/19 06:11:44;;;;;;;5.85;2.85;;;;;;;-0.64;97.13;99921.38;6058096;23;20035;-43
2023/01/19 06:14:10;;;;;;;6.85;2.38;;;;;;;-0.65;97.71;99913.53;6058050;23;20041;-44
2023/01/19 06:16:37;;;;;;;3.35;1.63;;;;;;;-0.65;97.24;99903.47;6058619;23;20035;-44
2023/01/19 06:19:04;;;;;;;7.40;2.28;;;;;;;-0.65;97.01;99908.91;6058539;23;20039;-42
2023/01/19 06:21:31;;;;;;;6.80;1.45;;;;;;;-0.62;97.30;99908.34;6058347;23;20047;-43
2023/01/19 06:23:58;;;;;;;3.47;2.30;;;;;;;-0.58;97.24;99916.69;6059053;23;20565;-44
2023/01/19 06:26:26;;;;;;;6.32;2.50;;;;;;;-0.55;97.27;99918.03;6044791;23;20033;-47
2023/01/19 06:28:54;;;;;;;7.75;2.78;;;;;;;-0.51;97.24;99919.06;6054468;23;20033;-44
2023/01/19 06:31:21;;;;;;;6.55;2.47;;;;;;;-0.47;97.05;99926.34;6058236;23;20486;-43
2023/01/19 06:33:49;;;;;;;6.55;2.17;;;;;;;-0.43;97.22;99921.13;6033141;23;20032;-43
2023/01/19 06:36:15;;;;;;;8.10;2.13;;;;;;;-0.39;96.96;99930.31;6058298;23;20535;-44
2023/01/19 06:38:42;;;;;;;3.47;1.73;;;;;;;-0.35;97.29;99934.09;6076445;23;20379;-42
2023/01/19 06:41:08;;;;;;;3.75;1.75;;;;;;;-0.31;97.09;99932.38;6058087;23;20062;-43
2023/01/19 06:43:35;;;;;;;5.47;2.05;;;;;;;-0.30;97.07;99926.66;6057838;23;20474;-42
2023/01/19 06:46:02;;;;;;;7.85;2.30;;;;;;;-0.27;97.05;99933.44;6058099;23;20043;-44
2023/01/19 06:48:29;;;;;;;8.68;2.13;;;;;;;-0.25;97.09;99939.38;6057580;23;20449;-43
2023/01/19 06:50:56;;;;;;;6.65;2.17;;;;;;;-0.23;97.44;99939.88;6058474;23;20176;-43
2023/01/19 06:53:27;;;;;;;20.48;4.18;;;;;;;-0.21;97.03;99943.09;6058648;23;20032;-43
2023/01/19 06:56:00;;;;;;;3.20;1.60;;;;;;;-0.20;97.02;99942.03;6056278;23;20544;-44
2023/01/19 06:58:29;;;;;;;8.63;2.17;;;;;;;-0.18;97.37;99942.53;6040579;23;20029;-43
2023/01/19 07:01:02;;;;;;;5.30;2.35;;;;;;;-0.17;97.07;99949.59;6057025;23;20044;-43
2023/01/19 07:03:29;;;;;;;6.00;2.05;;;;;;;-0.16;96.99;99956.66;6032467;23;20028;-43
2023/01/19 07:05:56;;;;;;;4.15;1.60;;;;;;;-0.17;97.13;99949.59;6058491;23;20047;-43
2023/01/19 07:08:23;;;;;;;4.82;2.00;;;;;;;-0.17;96.70;99944.97;6065182;23;20032;-43
2023/01/19 07:10:50;;;;;;;5.68;2.13;;;;;;;-0.15;96.92;99944.66;6057940;23;20554;-44
2023/01/19 07:13:39;;;;;;;5.90;1.92;;;;;;;-0.15;97.00;99950.09;6058330;23;20035;-46
2023/01/19 07:16:08;;;;;;;8.95;1.85;;;;;;;-0.16;96.44;99960.16;6058081;23;20039;-44
2023/01/19 07:18:36;;;;;;;7.18;2.15;;;;;;;-0.15;97.10;99955.53;6032836;23;20032;-46
2023/01/19 07:21:04;;;;;;;7.15;2.50;;;;;;;-0.15;97.10;99955.53;6057857;23;20067;-43
2023/01/19 07:23:31;;;;;;;4.90;1.73;;;;;;;-0.15;96.98;99958.25;6055176;23;20482;-43
2023/01/19 07:26:02;;;;;;;5.97;2.38;;;;;;;-0.15;96.95;99963.72;6057349;23;20048;-43
2023/01/19 07:28:30;;;;;;;7.10;1.80;;;;;;;-0.16;96.76;99965.63;6058635;23;20112;-47
2023/01/19 07:30:57;;;;;;;5.53;1.92;;;;;;;-0.14;96.99;99963.44;6033064;23;20043;-42
2023/01/19 07:33:25;;;;;;;4.68;2.17;;;;;;;-0.13;96.93;99964.22;6058016;23;20040;-45
2023/01/19 07:35:52;;;;;;;4.70;2.17;;;;;;;-0.12;97.06;99968.56;6057815;23;20035;-43
2023/01/19 07:38:19;;;;;;;3.67;2.13;;;;;;;-0.12;97.10;99974.81;6075299;23;20079;-43
2023/01/19 07:40:46;;;;;;;6.03;2.08;;;;;;;-0.10;96.83;99974.50;6032565;23;20079;-43
2023/01/19 07:43:13;;;;;;;9.57;2.63;;;;;;;-0.10;97.10;99980.78;6056883;23;20037;-44
2023/01/19 07:45:40;;;;;;;7.63;2.63;;;;;;;-0.10;97.13;99997.09;6056156;23;20031;-43
2023/01/19 07:48:07;;;;;;;6.57;2.10;;;;;;;-0.08;96.79;99994.09;6057895;23;20094;-44
2023/01/19 07:50:34;;;;;;;4.88;2.53;;;;;;;-0.09;96.95;100000.63;6058167;23;20025;-46
2023/01/19 07:53:07;;;;;;;7.55;2.40;;;;;;;-0.08;96.83;99994.09;6027526;23;20047;-45
2023/01/19 07:55:34;;;;;;;6.55;2.90;;;;;;;-0.07;97.08;99990.25;6058223;23;20044;-43
2023/01/19 07:58:06;;;;;;;6.72;3.22;;;;;;;-0.07;96.94;99998.41;6058054;23;20037;-44
2023/01/19 08:00:37;;;;;;;7.10;2.58;;;;;;;-0.07;96.95;100001.13;6057642;23;20029;-44
2023/01/19 08:03:04;;;;;;;5.15;3.05;;;;;;;-0.07;97.13;100001.94;6026253;23;20506;-47
2023/01/19 08:05:32;;;;;;;4.60;2.22;;;;;;;-0.06;97.10;100002.78;6029612;23;20052;-44
2023/01/19 08:07:59;;;;;;;4.43;2.28;;;;;;;-0.06;97.03;99998.13;6033115;23;20119;-44
2023/01/19 08:10:27;;;;;;;7.70;2.67;;;;;;;-0.05;97.12;100009.81;6023060;23;20043;-44
2023/01/19 08:12:55;;;;;;;6.68;2.08;;;;;;;-0.05;97.00;100001.66;6022033;23;20472;-44
2023/01/19 08:15:23;;;;;;;7.03;2.58;;;;;;;-0.05;96.92;100007.09;6020025;23;20060;-49
2023/01/19 08:18:00;;;;;;;6.07;2.53;;;;;;;-0.05;96.94;100009.81;6028466;23;20041;-43
2023/01/19 08:20:28;;;;;;;8.32;2.65;;;;;;;-0.06;96.92;100014.47;6021844;23;20048;-49
2023/01/19 08:23:04;;;;;;;7.75;2.60;;;;;;;-0.04;97.27;100008.72;6029006;23;20037;-43
2023/01/19 08:25:36;;;;;;;4.75;2.30;;;;;;;-0.02;96.84;100015.47;6028891;23;20037;-43
2023/01/19 08:28:05;;;;;;;6.47;3.22;;;;;;;-0.01;96.93;100016.31;6026793;23;20029;-43
2023/01/19 08:30:32;;;;;;;9.95;2.92;;;;;;;-0.01;97.08;100014.38;6004529;23;20108;-43
2023/01/19 08:33:07;;;;;;;6.32;3.20;;;;;;;0.02;97.10;100029.31;6028584;23;20041;-46
2023/01/19 08:35:36;;;;;;;12.80;4.00;;;;;;;0.04;96.78;100035.28;6028363;23;20041;-43
2023/01/19 08:38:04;;;;;;;6.47;3.42;;;;;;;0.05;96.93;100036.09;6028898;23;20048;-46
2023/01/19 08:40:34;;;;;;;9.73;3.90;;;;;;;0.06;96.95;100038.50;6029587;23;20029;-44
2023/01/19 08:43:13;;;;;;;11.90;3.35;;;;;;;0.06;97.17;100043.94;6028437;23;20414;-42
2023/01/19 08:45:48;;;;;;;5.07;2.83;;;;;;;0.09;97.01;100048.00;6003240;23;20035;-45
2023/01/19 08:48:17;;;;;;;4.93;3.40;;;;;;;0.11;96.73;100046.59;5980317;23;20037;-45
2023/01/19 08:50:46;;;;;;;9.43;2.80;;;;;;;0.13;96.98;100049.03;6029038;23;20037;-44
2023/01/19 08:53:13;;;;;;;5.43;2.78;;;;;;;0.13;96.97;100047.13;6030544;23;20445;-43
2023/01/19 08:55:41;;;;;;;5.55;3.13;;;;;;;0.16;96.90;100051.97;6030572;23;20029;-43
2023/01/19 08:58:08;;;;;;;6.30;3.03;;;;;;;0.17;97.34;100059.03;6029618;23;20057;-44
2023/01/19 09:00:36;;;;;;;5.45;2.88;;;;;;;0.18;97.10;100057.94;6028401;23;20069;-46
2023/01/19 09:03:06;;;;;;;11.82;5.63;;;;;;;0.19;97.00;100059.53;6029949;23;20741;-45
2023/01/19 09:05:36;;;;;;;12.48;5.32;;;;;;;0.20;97.06;100066.63;6002674;23;20036;-44
2023/01/19 09:08:05;;;;;;;15.35;4.80;;;;;;;0.21;96.90;100060.09;6036599;23;20033;-44
2023/01/19 09:10:34;;;;;;;12.23;5.30;;;;;;;0.23;97.01;100054.34;6030264;23;20040;-44
2023/01/19 09:13:06;;;;;;;16.75;4.97;;;;;;;0.24;96.88;100056.75;6011389;23;20051;-44
2023/01/19 09:15:36;;;;;;;;;;;;;;;0.27;96.84;100056.16;6030825;23;20033;-44
2023/01/19 09:18:05;;;;;;;10.93;4.28;;;;;;;0.28;96.90;100063.25;6030314;23;19967;-44
2023/01/19 09:20:34;;;;;;;7.60;3.45;;;;;;;0.30;96.98;100071.91;6029225;23;20033;-44
2023/01/19 09:23:01;;;;;;;8.32;3.45;;;;;;;0.31;96.82;100073.56;6029957;23;20751;-43
2023/01/19 09:25:28;;;;;;;12.60;3.53;;;;;;;0.34;97.18;100072.97;6029712;23;20570;-43
2023/01/19 09:28:01;;;;;;;17.40;3.30;;;;;;;0.36;96.84;100073.47;6031099;23;20037;-43
2023/01/19 09:30:28;;;;;;;7.07;3.88;;;;;;;0.38;97.00;100073.97;6029121;23;20029;-44
2023/01/19 09:32:55;;;;;;;8.73;2.75;;;;;;;0.39;96.82;100075.63;6005072;23;20460;-43
2023/01/19 09:35:24;;;;;;;9.30;3.40;;;;;;;0.41;96.89;100089.72;6029614;23;20060;-43
2023/01/19 09:37:51;;;;;;;8.52;2.83;;;;;;;0.42;96.76;100085.91;6045398;23;20029;-44
2023/01/19 09:40:22;;;;;;;14.43;5.28;;;;;;;0.41;96.83;100089.72;6032907;23;20119;-44
2023/01/19 09:43:03;;;;;;;11.40;3.50;;;;;;;0.40;96.94;100090.00;6030037;23;20036;-44
2023/01/19 09:45:38;;;;;;;9.23;3.40;;;;;;;0.39;96.96;100086.50;6011464;23;20036;-44
2023/01/19 09:48:27;;;;;;;7.05;3.25;;;;;;;0.40;96.86;100092.72;6029952;23;20111;-43
2023/01/19 09:50:58;;;;;;;10.85;3.58;;;;;;;0.41;96.97;100103.34;6030177;23;20029;-47
2023/01/19 09:53:43;;;;;;;14.95;3.40;;;;;;;0.43;97.03;100105.75;6029842;23;20037;-45
2023/01/19 09:56:14;;;;;;;13.02;4.53;;;;;;;0.47;97.07;100106.81;6030302;23;20047;-43
2023/01/19 09:58:41;;;;;;;14.73;4.85;;;;;;;0.52;97.08;100109.47;6004831;23;20037;-43
2023/01/19 10:01:21;;;;;;;17.45;4.38;;;;;;;0.60;97.07;100111.53;6029638;23;20032;-45
2023/01/19 10:03:53;;;;;;;16.90;4.80;;;;;;;0.66;97.06;100107.63;6029522;23;20116;-48
2023/01/19 10:06:21;;;;;;;15.35;3.80;;;;;;;0.73;97.02;100113.50;6030029;23;20036;-43
2023/01/19 10:09:08;;;;;;;25.35;4.82;;;;;;;0.81;97.10;100128.38;6012412;23;20045;-43
2023/01/19 10:11:39;;;;;;;6.57;4.00;;;;;;;0.88;96.98;100135.06;6029835;23;20037;-45
2023/01/19 10:14:42;;;;;;;7.35;3.65;;;;;;;0.96;96.79;100139.03;6029213;23;20048;-48
2023/01/19 10:17:36;;;;;;;8.35;3.50;;;;;;;0.98;97.03;100142.28;6030514;23;20044;-44
2023/01/19 10:20:11;;;;;;;10.10;3.35;;;;;;;1.01;96.73;100141.66;6004498;23;20430;-44
2023/01/19 10:22:42;;;;;;;7.15;3.45;;;;;;;1.00;96.68;100146.34;6029491;23;20025;-45
2023/01/19 10:25:18;;;;;;;14.95;3.78;;;;;;;1.01;96.89;100149.84;6029311;23;20029;-47
2023/01/19 10:27:45;;;;;;;9.32;3.75;;;;;;;1.00;96.49;100151.78;6030023;23;20129;-44
2023/01/19 10:30:25;;;;;;;8.32;3.33;;;;;;;1.02;96.85;100159.66;6029758;23;20087;-44
2023/01/19 10:32:52;;;;;;;12.25;4.13;;;;;;;1.02;96.84;100151.47;6029052;23;20467;-44
2023/01/19 10:35:23;;;;;;;7.35;4.30;;;;;;;1.04;96.83;100168.34;6030270;23;20033;-44
2023/01/19 10:37:55;;;;;;;12.13;4.03;;;;;;;1.04;97.07;100158.25;6044714;23;20123;-45
2023/01/19 10:40:36;;;;;;;7.40;3.80;;;;;;;1.09;97.46;100165.53;6031718;23;20036;-44
2023/01/19 10:43:37;;;;;;;13.18;3.72;;;;;;;1.16;97.13;100161.34;6030132;23;20029;-43
2023/01/19 10:46:26;;;;;;;10.25;3.60;;;;;;;1.29;97.04;100170.66;5997990;23;20033;-47
2023/01/19 10:48:54;;;;;;;10.48;3.13;;;;;;;1.39;97.08;100170.50;6029673;23;20099;-43
2023/01/19 10:51:22;;;;;;;10.65;3.30;;;;;;;1.49;96.95;100177.69;6030445;23;20505;-44
2023/01/19 10:53:58;;;;;;;12.50;3.95;;;;;;;1.60;96.67;100181.88;6004696;23;20033;-47
2023/01/19 10:56:30;;;;;;;5.60;2.58;;;;;;;1.68;96.77;100182.00;6029317;23;20041;-45
2023/01/19 10:59:02;;;;;;;9.23;3.97;;;;;;;1.74;96.42;100193.63;6027477;23;20032;-44
2023/01/19 11:01:34;;;;;;;11.70;3.13;;;;;;;1.77;96.21;100193.03;6029120;23;20048;-44
2023/01/19 11:04:27;;;;;;;6.22;2.63;;;;;;;1.80;96.07;100195.94;6030054;23;20390;-50
2023/01/19 11:07:17;;;;;;;4.70;2.70;;;;;;;1.78;95.91;100198.19;6032072;23;20029;-44
2023/01/19 11:09:45;;;;;;;7.95;3.13;;;;;;;1.71;95.83;100200.50;5999336;23;20033;-49
2023/01/19 11:12:21;;;;;;;9.00;4.25;;;;;;;1.65;96.18;100207.13;6029287;23;20083;-45
2023/01/19 11:14:50;;;;;;;8.15;3.45;;;;;;;1.60;96.06;100204.50;6029736;23;20029;-44
2023/01/19 11:17:25;;;;;;;11.90;3.80;;;;;;;1.53;96.40;100215.00;6029614;23;20056;-44
2023/01/19 11:19:55;;;;;;;11.60;5.18;;;;;;;1.52;96.45;100212.56;6004923;23;20422;-43
2023/01/19 11:22:26;;;;;;;11.55;4.93;;;;;;;1.50;96.47;100212.88;6029433;23;20033;-45
2023/01/19 11:24:57;;;;;;;7.20;4.00;;;;;;;1.53;96.41;100220.47;6004880;23;20043;-46
2023/01/19 11:27:25;;;;;;;11.25;3.03;;;;;;;1.55;96.44;100220.13;6014027;23;20079;-43
2023/01/19 11:30:19;;;;;;;8.65;4.22;;;;;;;1.57;96.59;100220.66;6030336;23;20036;-44
2023/01/19 11:32:48;;;;;;;13.48;4.45;;;;;;;1.59;96.32;100221.19;6004415;23;20395;-44
2023/01/19 11:35:35;;;;;;;6.95;3.50;;;;;;;1.59;96.42;100230.16;6028722;23;20033;-44
2023/01/19 11:38:11;;;;;;;7.25;4.10;;;;;;;1.62;96.34;100218.66;6045507;23;20033;-44
2023/01/19 11:40:40;;;;;;;12.43;4.80;;;;;;;1.63;96.19;100214.81;6012107;23;20029;-47
2023/01/19 11:43:12;;;;;;;11.32;3.97;;;;;;;1.65;96.33;100223.50;6030368;23;20039;-45
2023/01/19 11:45:39;;;;;;;9.80;4.60;;;;;;;1.68;96.38;100222.91;6004639;23;20029;-43
2023/01/19 11:48:09;;;;;;;9.85;4.25;;;;;;;1.72;96.30;100228.59;6028794;23;20075;-44
2023/01/19 11:50:42;;;;;;;7.32;3.47;;;;;;;1.73;96.28;100230.19;6029281;23;20037;-45
2023/01/19 11:53:24;;;;;;;10.88;3.85;;;;;;;1.76;96.28;100229.59;6029051;23;20501;-43